createdAt,value
2023-05-01T00:01:32.234Z,8.18
2023-05-01T00:03:59.220Z,8.15
2023-05-01T00:06:26.318Z,8.16
2023-05-01T00:08:52.878Z,8.17
2023-05-01T00:11:19.392Z,8.18
2023-05-01T00:13:50.099Z,8.19
2023-05-01T00:16:17.804Z,8.18
2023-05-01T00:18:44.608Z,8.18
2023-05-01T00:21:11.173Z,8.15
2023-05-01T00:23:37.683Z,8.15
2023-05-01T00:26:04.475Z,8.11
2023-05-01T00:28:31.389Z,8.08
2023-05-01T00:30:58.122Z,8.04
2023-05-01T00:33:24.729Z,8.02
2023-05-01T00:35:52.857Z,8.00
2023-05-01T00:38:19.517Z,8.01
2023-05-01T00:40:46.734Z,7.99
2023-05-01T00:43:14.005Z,7.98
2023-05-01T00:45:44.649Z,7.95
2023-05-01T00:48:11.688Z,7.93
2023-05-01T00:50:38.797Z,7.92
2023-05-01T00:53:05.772Z,7.89
2023-05-01T00:55:33.780Z,7.86
2023-05-01T00:58:01.223Z,7.82
2023-05-01T01:00:29.664Z,7.77
2023-05-01T01:02:56.658Z,7.72
2023-05-01T01:05:28.282Z,7.67
2023-05-01T01:07:58.220Z,7.66
2023-05-01T01:10:52.213Z,7.66
2023-05-01T01:13:29.165Z,7.66
2023-05-01T01:16:32.213Z,7.67
2023-05-01T01:19:26.076Z,7.68
2023-05-01T01:21:58.797Z,7.57
2023-05-01T01:24:44.688Z,7.55
2023-05-01T01:27:42.272Z,7.53
2023-05-01T01:30:08.885Z,7.52
2023-05-01T01:33:09.339Z,7.48
2023-05-01T01:35:39.058Z,7.49
2023-05-01T01:38:15.265Z,7.52
2023-05-01T01:40:48.036Z,7.54
2023-05-01T01:43:21.915Z,7.53
2023-05-01T01:45:59.554Z,7.49
2023-05-01T01:48:31.972Z,7.44
2023-05-01T01:51:00.974Z,7.39
2023-05-01T01:53:31.126Z,7.37
2023-05-01T01:56:01.729Z,7.38
2023-05-01T01:58:30.379Z,7.40
2023-05-01T02:00:58.272Z,7.42
2023-05-01T02:03:26.236Z,7.45
2023-05-01T02:05:55.104Z,7.48
2023-05-01T02:08:23.616Z,7.53
2023-05-01T02:10:51.051Z,7.55
2023-05-01T02:13:18.453Z,7.58
2023-05-01T02:15:46.433Z,7.59
2023-05-01T02:18:14.754Z,7.58
2023-05-01T02:20:42.856Z,7.58
2023-05-01T02:23:10.326Z,7.60
2023-05-01T02:25:39.499Z,7.59
2023-05-01T02:28:14.615Z,7.60
2023-05-01T02:30:41.224Z,7.60
2023-05-01T02:33:11.110Z,7.59
2023-05-01T02:35:45.096Z,7.60
2023-05-01T02:38:13.121Z,7.56
2023-05-01T02:40:40.388Z,7.60
2023-05-01T02:43:13.932Z,7.59
2023-05-01T02:45:42.437Z,7.60
2023-05-01T02:48:12.217Z,7.65
2023-05-01T02:50:43.268Z,7.72
2023-05-01T02:53:10.273Z,7.76
2023-05-01T02:55:37.257Z,7.79
2023-05-01T02:58:04.606Z,7.83
2023-05-01T03:00:31.386Z,7.81
2023-05-01T03:02:58.431Z,7.80
2023-05-01T03:05:25.145Z,7.82
2023-05-01T03:07:51.743Z,7.83
2023-05-01T03:10:18.590Z,7.83
2023-05-01T03:12:45.470Z,7.90
2023-05-01T03:15:14.929Z,7.92
2023-05-01T03:17:41.917Z,7.92
2023-05-01T03:20:09.818Z,7.92
2023-05-01T03:22:36.928Z,7.95
2023-05-01T03:25:04.526Z,7.96
2023-05-01T03:27:31.339Z,8.01
2023-05-01T03:30:00.008Z,8.05
2023-05-01T03:32:29.188Z,8.11
2023-05-01T03:34:55.869Z,8.17
2023-05-01T03:37:22.765Z,8.20
2023-05-01T03:39:49.354Z,8.20
2023-05-01T03:42:16.055Z,8.25
2023-05-01T03:44:42.686Z,8.26
2023-05-01T03:47:10.365Z,8.25
2023-05-01T03:49:37.020Z,8.24
2023-05-01T03:52:03.639Z,8.22
2023-05-01T03:54:30.515Z,8.21
2023-05-01T03:56:57.282Z,8.19
2023-05-01T03:59:23.945Z,8.19
2023-05-01T04:01:50.516Z,8.22
2023-05-01T04:04:17.275Z,8.21
2023-05-01T04:06:44.364Z,8.14
2023-05-01T04:09:11.096Z,8.11
2023-05-01T04:11:37.748Z,8.12
2023-05-01T04:14:04.349Z,8.14
2023-05-01T04:16:31.854Z,8.14
2023-05-01T04:18:58.698Z,8.08
2023-05-01T04:21:25.347Z,8.05
2023-05-01T04:23:51.997Z,8.13
2023-05-01T04:26:18.596Z,8.17
2023-05-01T04:28:45.324Z,8.19
2023-05-01T04:31:11.964Z,8.19
2023-05-01T04:33:38.609Z,8.21
2023-05-01T04:36:05.392Z,8.21
2023-05-01T04:38:32.129Z,8.11
2023-05-01T04:40:58.734Z,8.08
2023-05-01T04:43:25.427Z,8.12
2023-05-01T04:45:52.063Z,8.15
2023-05-01T04:48:18.775Z,8.16
2023-05-01T04:50:45.554Z,8.20
2023-05-01T04:53:12.178Z,8.18
2023-05-01T04:55:38.783Z,8.22
2023-05-01T04:58:05.644Z,8.26
2023-05-01T05:00:32.288Z,8.35
2023-05-01T05:02:59.090Z,8.39
2023-05-01T05:05:25.767Z,8.40
2023-05-01T05:07:52.492Z,8.48
2023-05-01T05:10:19.468Z,8.55
2023-05-01T05:12:46.097Z,8.60
2023-05-01T05:15:16.481Z,8.62
2023-05-01T05:17:43.322Z,8.66
2023-05-01T05:20:10.311Z,8.71
2023-05-01T05:22:37.572Z,8.78
2023-05-01T05:25:06.882Z,8.84
2023-05-01T05:27:38.265Z,8.88
2023-05-01T05:30:06.086Z,8.91
2023-05-01T05:32:32.847Z,8.93
2023-05-01T05:34:59.671Z,8.96
2023-05-01T05:37:28.852Z,8.99
2023-05-01T05:39:57.930Z,9.03
2023-05-01T05:42:24.680Z,9.08
2023-05-01T05:44:51.536Z,9.13
2023-05-01T05:47:18.192Z,9.20
2023-05-01T05:49:44.887Z,9.25
2023-05-01T05:52:11.654Z,9.22
2023-05-01T05:54:38.295Z,9.27
2023-05-01T05:57:05.165Z,9.26
2023-05-01T05:59:31.950Z,9.35
2023-05-01T06:01:59.303Z,9.44
2023-05-01T06:04:28.129Z,9.54
2023-05-01T06:06:54.991Z,9.60
2023-05-01T06:09:21.795Z,9.61
2023-05-01T06:11:48.386Z,9.54
2023-05-01T06:14:16.699Z,9.56
2023-05-01T06:16:43.706Z,9.61
2023-05-01T06:19:12.231Z,9.72
2023-05-01T06:21:39.316Z,9.82
2023-05-01T06:24:08.896Z,9.93
2023-05-01T06:26:37.681Z,9.98
2023-05-01T06:29:06.885Z,10.08
2023-05-01T06:31:34.063Z,10.21
2023-05-01T06:34:00.909Z,10.30
2023-05-01T06:36:29.886Z,10.52
2023-05-01T06:38:56.982Z,10.61
2023-05-01T06:41:26.007Z,10.70
2023-05-01T06:43:52.960Z,10.76
2023-05-01T06:46:19.917Z,10.81
2023-05-01T06:48:47.736Z,10.85
2023-05-01T06:51:19.905Z,10.91
2023-05-01T06:53:47.122Z,10.66
2023-05-01T06:56:14.090Z,10.57
2023-05-01T06:58:41.078Z,10.48
2023-05-01T07:01:08.050Z,10.49
2023-05-01T07:03:53.184Z,10.61
2023-05-01T07:06:19.859Z,10.79
2023-05-01T07:08:46.603Z,10.93
2023-05-01T07:11:13.352Z,11.07
2023-05-01T07:13:40.136Z,11.18
2023-05-01T07:16:07.300Z,11.23
2023-05-01T07:18:35.228Z,11.24
2023-05-01T07:21:02.018Z,11.37
2023-05-01T07:23:29.430Z,11.45
2023-05-01T07:25:56.848Z,11.39
2023-05-01T07:28:23.605Z,11.49
2023-05-01T07:30:50.482Z,11.71
2023-05-01T07:33:17.580Z,11.89
2023-05-01T07:35:44.444Z,12.05
2023-05-01T07:38:11.532Z,12.11
2023-05-01T07:40:38.717Z,12.12
2023-05-01T07:43:05.707Z,12.03
2023-05-01T07:45:34.378Z,12.10
2023-05-01T07:48:01.352Z,12.13
2023-05-01T07:50:28.936Z,12.16
2023-05-01T07:52:56.133Z,12.16
2023-05-01T07:55:24.350Z,12.13
2023-05-01T07:57:51.230Z,12.15
2023-05-01T08:00:18.104Z,12.18
2023-05-01T08:02:44.761Z,12.16
2023-05-01T08:05:11.392Z,12.22
2023-05-01T08:07:38.029Z,12.30
2023-05-01T08:10:05.344Z,12.34
2023-05-01T08:12:32.284Z,12.42
2023-05-01T08:14:58.915Z,12.43
2023-05-01T08:17:25.523Z,12.45
2023-05-01T08:19:53.945Z,12.45
2023-05-01T08:22:20.644Z,12.43
2023-05-01T08:24:47.145Z,12.51
2023-05-01T08:27:13.734Z,12.60
2023-05-01T08:29:40.406Z,12.59
2023-05-01T08:32:06.907Z,12.60
2023-05-01T08:34:33.571Z,12.64
2023-05-01T08:37:00.209Z,12.65
2023-05-01T08:39:26.791Z,12.81
2023-05-01T08:41:53.949Z,12.95
2023-05-01T08:44:29.148Z,13.01
2023-05-01T08:47:18.964Z,13.03
2023-05-01T08:49:55.788Z,13.06
2023-05-01T08:52:23.381Z,13.11
2023-05-01T08:54:51.194Z,13.16
2023-05-01T08:57:18.411Z,13.23
2023-05-01T08:59:46.038Z,13.24
2023-05-01T09:02:15.329Z,13.29
2023-05-01T09:04:42.159Z,13.40
2023-05-01T09:07:10.127Z,13.38
2023-05-01T09:09:37.073Z,13.36
2023-05-01T09:12:17.425Z,13.49
2023-05-01T09:14:45.190Z,13.58
2023-05-01T09:17:15.588Z,13.60
2023-05-01T09:19:44.536Z,13.64
2023-05-01T09:22:11.157Z,13.70
2023-05-01T09:24:40.861Z,13.83
2023-05-01T09:27:07.807Z,14.00
2023-05-01T09:29:48.137Z,14.17
2023-05-01T09:32:23.507Z,14.34
2023-05-01T09:34:51.832Z,14.48
2023-05-01T09:37:49.376Z,14.67
2023-05-01T09:40:16.099Z,15.07
2023-05-01T09:42:53.375Z,15.40
2023-05-01T09:45:20.103Z,15.53
2023-05-01T09:47:47.372Z,15.71
2023-05-01T09:50:30.729Z,15.84
2023-05-01T09:52:57.344Z,16.00
2023-05-01T09:55:25.653Z,15.88
2023-05-01T09:57:53.026Z,15.74
2023-05-01T10:00:22.114Z,15.87
2023-05-01T10:02:49.878Z,15.82
2023-05-01T10:05:17.004Z,15.80
2023-05-01T10:07:58.177Z,15.84
2023-05-01T10:10:26.171Z,15.84
2023-05-01T10:12:52.808Z,15.87
2023-05-01T10:15:26.191Z,15.89
2023-05-01T10:17:54.744Z,16.25
2023-05-01T10:20:22.134Z,16.50
2023-05-01T10:22:49.205Z,16.63
2023-05-01T10:25:18.123Z,16.95
2023-05-01T10:27:45.523Z,17.25
2023-05-01T10:30:13.369Z,17.38
2023-05-01T10:32:42.411Z,17.64
2023-05-01T10:35:13.505Z,17.68
2023-05-01T10:37:58.601Z,17.47
2023-05-01T10:40:40.881Z,17.35
2023-05-01T10:43:30.264Z,17.34
2023-05-01T10:46:19.606Z,17.26
2023-05-01T10:48:46.105Z,17.14
2023-05-01T10:51:26.590Z,17.10
2023-05-01T10:54:12.685Z,17.29
2023-05-01T10:56:43.662Z,17.37
2023-05-01T10:59:11.582Z,17.51
2023-05-01T11:01:44.970Z,17.71
2023-05-01T11:04:21.938Z,17.70
2023-05-01T11:07:11.235Z,17.63
2023-05-01T11:09:45.440Z,17.45
2023-05-01T11:12:23.023Z,17.51
2023-05-01T11:14:57.060Z,17.62
2023-05-01T11:17:43.000Z,17.51
2023-05-01T11:20:24.929Z,17.42
2023-05-01T11:22:58.586Z,17.29
2023-05-01T11:25:36.147Z,17.39
2023-05-01T11:28:04.154Z,17.47
2023-05-01T11:30:37.917Z,17.51
2023-05-01T11:33:05.801Z,17.42
2023-05-01T11:35:33.149Z,17.46
2023-05-01T11:37:59.681Z,17.84
2023-05-01T11:40:27.101Z,18.14
2023-05-01T11:43:01.053Z,18.43
2023-05-01T11:45:28.081Z,18.61
2023-05-01T11:47:54.966Z,18.99
2023-05-01T11:50:22.078Z,18.97
2023-05-01T11:52:57.755Z,19.12
2023-05-01T11:55:32.784Z,19.61
2023-05-01T11:57:59.904Z,19.39
2023-05-01T12:00:39.758Z,19.25
2023-05-01T12:03:07.382Z,19.46
2023-05-01T12:05:37.229Z,19.86
2023-05-01T12:08:11.565Z,20.25
2023-05-01T12:10:40.598Z,20.20
2023-05-01T12:13:09.083Z,19.91
2023-05-01T12:15:40.855Z,19.68
2023-05-01T12:18:07.654Z,19.54
2023-05-01T12:20:42.668Z,19.95
2023-05-01T12:23:11.734Z,20.10
2023-05-01T12:25:39.943Z,19.51
2023-05-01T12:28:20.050Z,19.21
2023-05-01T12:30:49.179Z,19.08
2023-05-01T12:33:20.751Z,18.59
2023-05-01T12:35:49.351Z,18.27
2023-05-01T12:38:23.614Z,18.05
2023-05-01T12:41:12.055Z,17.88
2023-05-01T12:43:42.519Z,17.95
2023-05-01T12:46:15.082Z,18.02
2023-05-01T12:48:41.785Z,17.85
2023-05-01T12:51:08.673Z,17.51
2023-05-01T12:53:35.687Z,17.23
2023-05-01T12:56:03.515Z,17.09
2023-05-01T12:58:37.677Z,17.10
2023-05-01T13:01:04.563Z,16.92
2023-05-01T13:03:31.360Z,16.84
2023-05-01T13:06:00.522Z,16.79
2023-05-01T13:08:28.457Z,16.83
2023-05-01T13:10:59.222Z,16.68
2023-05-01T13:13:34.615Z,16.45
2023-05-01T13:16:12.423Z,16.27
2023-05-01T13:18:54.720Z,16.11
2023-05-01T13:21:23.313Z,16.04
2023-05-01T13:24:08.002Z,15.97
2023-05-01T13:26:36.006Z,15.72
2023-05-01T13:29:05.809Z,15.62
2023-05-01T13:31:32.857Z,15.45
2023-05-01T13:34:04.247Z,15.20
2023-05-01T13:36:33.840Z,15.08
2023-05-01T13:39:00.544Z,15.03
2023-05-01T13:41:27.700Z,15.02
2023-05-01T13:43:56.303Z,14.91
2023-05-01T13:46:24.710Z,14.84
2023-05-01T13:48:51.749Z,14.83
2023-05-01T13:51:23.847Z,14.78
2023-05-01T13:53:50.657Z,14.78
2023-05-01T13:56:17.215Z,14.81
2023-05-01T13:58:44.007Z,14.89
2023-05-01T14:01:22.521Z,14.91
2023-05-01T14:03:50.003Z,14.97
2023-05-01T14:06:21.743Z,15.07
2023-05-01T14:08:49.129Z,15.11
2023-05-01T14:11:16.113Z,15.17
2023-05-01T14:13:47.589Z,15.28
2023-05-01T14:16:24.208Z,15.53
2023-05-01T14:18:53.768Z,15.81
2023-05-01T14:21:21.019Z,16.18
2023-05-01T14:23:47.831Z,16.85
2023-05-01T14:26:18.462Z,17.80
2023-05-01T14:28:46.320Z,18.97
2023-05-01T14:31:17.390Z,19.52
2023-05-01T14:33:44.495Z,20.34
2023-05-01T14:36:12.806Z,21.00
2023-05-01T14:38:40.599Z,21.54
2023-05-01T14:41:12.402Z,21.63
2023-05-01T14:43:41.967Z,21.82
2023-05-01T14:46:08.862Z,22.10
2023-05-01T14:48:37.466Z,22.52
2023-05-01T14:51:06.488Z,22.94
2023-05-01T14:53:33.716Z,22.93
2023-05-01T14:56:01.263Z,22.49
2023-05-01T14:58:28.143Z,21.24
2023-05-01T15:00:55.138Z,20.30
2023-05-01T15:03:21.878Z,19.49
2023-05-01T15:05:48.897Z,18.93
2023-05-01T15:08:15.641Z,18.41
2023-05-01T15:10:42.548Z,18.70
2023-05-01T15:13:09.439Z,18.31
2023-05-01T15:15:36.244Z,18.15
2023-05-01T15:18:04.113Z,17.96
2023-05-01T15:20:33.165Z,17.87
2023-05-01T15:22:59.844Z,17.76
2023-05-01T15:25:26.703Z,17.58
2023-05-01T15:27:53.341Z,17.45
2023-05-01T15:30:20.478Z,17.26
2023-05-01T15:32:47.340Z,17.12
2023-05-01T15:35:16.797Z,17.03
2023-05-01T15:37:43.387Z,16.96
2023-05-01T15:40:10.431Z,16.96
2023-05-01T15:42:37.130Z,16.98
2023-05-01T15:45:04.289Z,17.05
2023-05-01T15:47:31.032Z,17.05
2023-05-01T15:49:57.909Z,16.90
2023-05-01T15:52:24.832Z,16.54
2023-05-01T15:54:51.959Z,16.29
2023-05-01T15:57:18.950Z,16.18
2023-05-01T15:59:45.605Z,16.08
2023-05-01T16:02:12.365Z,15.94
2023-05-01T16:04:40.841Z,15.88
2023-05-01T16:07:08.938Z,15.80
2023-05-01T16:09:35.990Z,15.78
2023-05-01T16:12:03.456Z,15.68
2023-05-01T16:14:31.217Z,15.60
2023-05-01T16:16:58.265Z,15.60
2023-05-01T16:19:25.058Z,15.63
2023-05-01T16:21:51.679Z,15.59
2023-05-01T16:24:18.668Z,15.52
2023-05-01T16:26:45.419Z,15.48
2023-05-01T16:29:12.618Z,15.42
2023-05-01T16:31:48.870Z,15.37
2023-05-01T16:34:18.263Z,15.32
2023-05-01T16:36:46.686Z,15.26
2023-05-01T16:39:14.955Z,15.25
2023-05-01T16:41:51.478Z,15.19
2023-05-01T16:44:20.478Z,15.16
2023-05-01T16:46:51.165Z,15.11
2023-05-01T16:49:17.823Z,15.01
2023-05-01T16:51:44.631Z,14.88
2023-05-01T16:54:11.521Z,14.83
2023-05-01T16:56:38.502Z,14.84
2023-05-01T16:59:05.210Z,14.82
2023-05-01T17:01:32.043Z,14.72
2023-05-01T17:04:00.201Z,14.62
2023-05-01T17:06:27.740Z,14.56
2023-05-01T17:08:54.937Z,14.52
2023-05-01T17:11:22.808Z,14.48
2023-05-01T17:13:52.095Z,14.48
2023-05-01T17:16:21.612Z,14.45
2023-05-01T17:18:52.029Z,14.49
2023-05-01T17:21:18.835Z,14.53
2023-05-01T17:23:45.788Z,14.63
2023-05-01T17:26:15.996Z,14.73
2023-05-01T17:28:45.152Z,14.82
2023-05-01T17:31:15.824Z,14.79
2023-05-01T17:33:43.999Z,14.74
2023-05-01T17:36:13.438Z,14.73
2023-05-01T17:38:40.097Z,14.68
2023-05-01T17:41:06.971Z,14.59
2023-05-01T17:43:33.832Z,14.51
2023-05-01T17:46:00.470Z,14.49
2023-05-01T17:48:27.071Z,14.46
2023-05-01T17:50:56.177Z,14.44
2023-05-01T17:56:26.153Z,14.31
2023-05-01T17:58:53.277Z,14.28
2023-05-01T18:01:20.116Z,14.19
2023-05-01T18:03:49.340Z,14.10
2023-05-01T18:06:24.548Z,13.96
2023-05-01T18:08:51.379Z,13.92
2023-05-01T18:11:18.059Z,13.91
2023-05-01T18:13:47.663Z,13.89
2023-05-01T18:16:15.787Z,13.84
2023-05-01T18:18:47.308Z,13.78
2023-05-01T18:21:14.687Z,13.74
2023-05-01T18:23:41.427Z,13.66
2023-05-01T18:26:08.199Z,13.61
2023-05-01T18:28:34.851Z,13.55
2023-05-01T18:31:01.583Z,13.47
2023-05-01T18:33:28.426Z,13.40
2023-05-01T18:35:58.082Z,13.33
2023-05-01T18:38:26.317Z,13.28
2023-05-01T18:40:54.346Z,13.26
2023-05-01T18:43:22.962Z,13.22
2023-05-01T18:45:49.480Z,13.19
2023-05-01T18:48:16.359Z,13.15
2023-05-01T18:50:44.511Z,13.10
2023-05-01T18:53:15.873Z,13.05
2023-05-01T18:55:42.592Z,13.00
2023-05-01T18:58:09.120Z,12.94
2023-05-01T19:00:35.629Z,12.87
2023-05-01T19:03:02.284Z,12.81
2023-05-01T19:05:28.862Z,12.74
2023-05-01T19:08:00.614Z,12.69
2023-05-01T19:10:27.424Z,12.64
2023-05-01T19:12:54.156Z,12.58
2023-05-01T19:15:20.631Z,12.53
2023-05-01T19:17:47.228Z,12.48
2023-05-01T19:20:17.015Z,12.43
2023-05-01T19:22:43.618Z,12.35
2023-05-01T19:25:10.159Z,12.26
2023-05-01T19:27:39.126Z,12.18
2023-05-01T19:30:09.458Z,12.07
2023-05-01T19:32:41.945Z,11.96
2023-05-01T19:35:12.724Z,11.86
2023-05-01T19:37:39.884Z,11.77
2023-05-01T19:40:06.857Z,11.70
2023-05-01T19:42:33.353Z,11.62
2023-05-01T19:45:00.248Z,11.56
2023-05-01T19:47:26.798Z,11.49
2023-05-01T19:49:53.353Z,11.42
2023-05-01T19:52:19.921Z,11.35
2023-05-01T19:54:47.636Z,11.28
2023-05-01T19:57:14.663Z,11.19
2023-05-01T19:59:42.883Z,11.15
2023-05-01T20:02:09.525Z,11.08
2023-05-01T20:04:36.249Z,11.00
2023-05-01T20:07:04.631Z,10.93
2023-05-01T20:09:32.367Z,10.85
2023-05-01T20:11:58.901Z,10.79
2023-05-01T20:14:25.453Z,10.75
2023-05-01T20:16:53.089Z,10.71
2023-05-01T20:19:19.965Z,10.71
2023-05-01T20:21:46.522Z,10.71
2023-05-01T20:24:13.364Z,10.72
2023-05-01T20:26:39.991Z,10.75
2023-05-01T20:29:06.502Z,10.81
2023-05-01T20:31:34.767Z,10.86
2023-05-01T20:34:01.328Z,10.92
2023-05-01T20:36:30.705Z,10.98
2023-05-01T20:38:58.029Z,11.03
2023-05-01T20:41:25.722Z,11.09
2023-05-01T20:43:53.032Z,11.14
2023-05-01T20:46:20.258Z,11.19
2023-05-01T20:48:47.468Z,11.22
2023-05-01T20:51:17.955Z,11.23
2023-05-01T20:53:44.423Z,11.26
2023-05-01T20:56:11.085Z,11.29
2023-05-01T20:58:37.951Z,11.34
2023-05-01T21:01:05.234Z,11.35
2023-05-01T21:03:32.650Z,11.35
2023-05-01T21:06:00.006Z,11.40
2023-05-01T21:08:30.863Z,11.34
2023-05-01T21:10:57.973Z,11.23
2023-05-01T21:13:27.166Z,11.10
2023-05-01T21:15:53.993Z,11.06
2023-05-01T21:18:21.198Z,10.98
2023-05-01T21:20:48.907Z,10.95
2023-05-01T21:23:19.260Z,10.91
2023-05-01T21:25:48.674Z,10.86
2023-05-01T21:28:15.218Z,10.80
2023-05-01T21:30:45.210Z,10.78
2023-05-01T21:33:13.395Z,10.76
2023-05-01T21:35:45.070Z,10.76
2023-05-01T21:38:11.741Z,10.74
2023-05-01T21:40:42.941Z,10.76
2023-05-01T21:43:09.517Z,10.77
2023-05-01T21:45:40.453Z,10.76
2023-05-01T21:48:08.847Z,10.77
2023-05-01T21:50:38.205Z,10.80
2023-05-01T21:53:07.070Z,10.80
2023-05-01T21:55:33.831Z,10.81
2023-05-01T21:58:00.992Z,10.83
2023-05-01T22:00:28.127Z,10.84
2023-05-01T22:02:54.821Z,10.88
2023-05-01T22:05:22.826Z,10.88
2023-05-01T22:07:51.930Z,10.90
2023-05-01T22:10:19.853Z,10.86
2023-05-01T22:12:49.916Z,10.85
2023-05-01T22:15:18.020Z,10.88
2023-05-01T22:17:47.134Z,10.88
2023-05-01T22:20:13.751Z,10.88
2023-05-01T22:22:41.323Z,10.88
2023-05-01T22:25:08.857Z,10.87
2023-05-01T22:27:35.966Z,10.84
2023-05-01T22:30:03.964Z,10.84
2023-05-01T22:32:30.900Z,10.83
2023-05-01T22:34:57.416Z,10.83
2023-05-01T22:37:25.607Z,10.85
2023-05-01T22:39:52.975Z,10.86
2023-05-01T22:42:19.905Z,10.85
2023-05-01T22:44:46.534Z,10.82
2023-05-01T22:47:14.252Z,10.79
2023-05-01T22:49:41.637Z,10.76
2023-05-01T22:52:08.247Z,10.76
2023-05-01T22:54:34.788Z,10.74
2023-05-01T22:57:01.393Z,10.72
2023-05-01T22:59:28.033Z,10.72
2023-05-01T23:01:55.014Z,10.70
2023-05-01T23:04:21.705Z,10.66
2023-05-01T23:06:48.405Z,10.58
2023-05-01T23:09:15.695Z,10.49
2023-05-01T23:11:46.308Z,10.42
2023-05-01T23:14:13.624Z,10.36
2023-05-01T23:16:45.007Z,10.32
2023-05-01T23:19:20.574Z,10.29
2023-05-01T23:21:49.682Z,10.28
2023-05-01T23:24:19.952Z,10.28
2023-05-01T23:26:49.427Z,10.29
2023-05-01T23:29:17.814Z,10.33
2023-05-01T23:31:49.192Z,10.31
2023-05-01T23:34:19.886Z,10.31
2023-05-01T23:36:47.290Z,10.32
2023-05-01T23:39:14.458Z,10.26
2023-05-01T23:41:41.524Z,10.17
2023-05-01T23:44:08.655Z,10.13
2023-05-01T23:46:36.505Z,10.10
2023-05-01T23:49:03.518Z,10.07
2023-05-01T23:51:31.566Z,10.08
2023-05-01T23:53:58.655Z,10.12
2023-05-01T23:56:25.645Z,10.16
2023-05-01T23:58:52.346Z,10.16
